sensor_id;sensor_type;location;lat;lon;timestamp;pressure;altitude;pressure_sealevel;temperature;humidity
79242;BME280;68670;48.720;9.118;2023-04-25T00:00:22;96248.13;;;6.96;73.28
79242;BME280;68670;48.720;9.118;2023-04-25T00:02:47;96249.91;;;7.02;72.63
79242;BME280;68670;48.720;9.118;2023-04-25T00:05:13;96235.69;;;7.00;72.25
79242;BME280;68670;48.720;9.118;2023-04-25T00:07:40;96237.47;;;6.95;74.37
79242;BME280;68670;48.720;9.118;2023-04-25T00:10:08;96235.69;;;6.89;73.21
79242;BME280;68670;48.720;9.118;2023-04-25T00:12:36;96232.59;;;6.85;75.92
79242;BME280;68670;48.720;9.118;2023-04-25T00:15:04;96237.56;;;6.77;76.50
79242;BME280;68670;48.720;9.118;2023-04-25T00:17:29;96233.66;;;6.72;76.60
79242;BME280;68670;48.720;9.118;2023-04-25T00:19:57;96238.28;;;6.72;75.58
79242;BME280;68670;48.720;9.118;2023-04-25T00:22:28;96233.06;;;6.70;76.57
79242;BME280;68670;48.720;9.118;2023-04-25T00:24:55;96227.97;;;6.62;76.56
79242;BME280;68670;48.720;9.118;2023-04-25T00:27:27;96231.63;;;6.56;75.80
79242;BME280;68670;48.720;9.118;2023-04-25T00:29:52;96220.03;;;6.49;78.31
79242;BME280;68670;48.720;9.118;2023-04-25T00:32:20;96237.66;;;6.47;78.53
79242;BME280;68670;48.720;9.118;2023-04-25T00:34:47;96233.28;;;6.46;78.76
79242;BME280;68670;48.720;9.118;2023-04-25T00:37:15;96227.38;;;6.49;75.29
79242;BME280;68670;48.720;9.118;2023-04-25T00:39:40;96233.63;;;6.49;78.04
79242;BME280;68670;48.720;9.118;2023-04-25T00:42:08;96228.28;;;6.43;79.15
79242;BME280;68670;48.720;9.118;2023-04-25T00:44:38;96240.47;;;6.40;78.96
79242;BME280;68670;48.720;9.118;2023-04-25T00:47:07;96225.81;;;6.41;78.55
79242;BME280;68670;48.720;9.118;2023-04-25T00:49:37;96219.78;;;6.39;79.08
79242;BME280;68670;48.720;9.118;2023-04-25T00:52:03;96214.94;;;6.41;79.81
79242;BME280;68670;48.720;9.118;2023-04-25T00:54:28;96222.25;;;6.52;75.76
79242;BME280;68670;48.720;9.118;2023-04-25T00:56:55;96220.88;;;6.61;74.69
79242;BME280;68670;48.720;9.118;2023-04-25T00:59:22;96224.81;;;6.77;73.44
79242;BME280;68670;48.720;9.118;2023-04-25T01:01:49;96213.09;;;6.77;73.43
79242;BME280;68670;48.720;9.118;2023-04-25T01:04:14;96205.50;;;6.79;73.37
79242;BME280;68670;48.720;9.118;2023-04-25T01:06:42;96199.09;;;6.85;73.27
79242;BME280;68670;48.720;9.118;2023-04-25T01:09:07;96197.56;;;6.89;73.16
79242;BME280;68670;48.720;9.118;2023-04-25T01:11:33;96206.81;;;6.99;72.39
79242;BME280;68670;48.720;9.118;2023-04-25T01:13:58;96203.13;;;6.94;73.06
79242;BME280;68670;48.720;9.118;2023-04-25T01:16:24;96204.91;;;6.88;73.51
79242;BME280;68670;48.720;9.118;2023-04-25T01:18:53;96201.22;;;6.83;73.49
79242;BME280;68670;48.720;9.118;2023-04-25T01:21:23;96201.47;;;6.93;72.94
79242;BME280;68670;48.720;9.118;2023-04-25T01:23:53;96198.16;;;6.91;73.04
79242;BME280;68670;48.720;9.118;2023-04-25T01:26:22;96193.91;;;6.95;72.96
79242;BME280;68670;48.720;9.118;2023-04-25T01:28:48;96193.91;;;6.95;73.14
79242;BME280;68670;48.720;9.118;2023-04-25T01:31:14;96197.09;;;7.03;72.46
79242;BME280;68670;48.720;9.118;2023-04-25T01:33:40;96197.69;;;7.05;73.09
79242;BME280;68670;48.720;9.118;2023-04-25T01:36:08;96193.44;;;6.98;74.64
79242;BME280;68670;48.720;9.118;2023-04-25T01:38:34;96191.66;;;6.92;75.43
79242;BME280;68670;48.720;9.118;2023-04-25T01:41:05;96196.75;;;6.88;75.54
79242;BME280;68670;48.720;9.118;2023-04-25T01:43:30;96193.06;;;6.83;76.44
79242;BME280;68670;48.720;9.118;2023-04-25T01:45:55;96198.78;;;6.81;75.78
79242;BME280;68670;48.720;9.118;2023-04-25T01:48:23;96195.56;;;6.72;76.41
79242;BME280;68670;48.720;9.118;2023-04-25T01:50:48;96200.28;;;6.65;76.60
79242;BME280;68670;48.720;9.118;2023-04-25T01:53:18;96203.00;;;6.65;76.29
79242;BME280;68670;48.720;9.118;2023-04-25T01:55:43;96191.41;;;6.58;76.43
79242;BME280;68670;48.720;9.118;2023-04-25T01:58:11;96192.13;;;6.65;75.93
79242;BME280;68670;48.720;9.118;2023-04-25T02:00:39;96189.03;;;6.62;73.89
79242;BME280;68670;48.720;9.118;2023-04-25T02:03:06;96186.78;;;6.47;74.18
79242;BME280;68670;48.720;9.118;2023-04-25T02:05:36;96192.25;;;6.47;74.58
79242;BME280;68670;48.720;9.118;2023-04-25T02:08:05;96185.47;;;6.38;74.64
79242;BME280;68670;48.720;9.118;2023-04-25T02:10:31;96187.00;;;6.34;74.56
79242;BME280;68670;48.720;9.118;2023-04-25T02:12:59;96183.69;;;6.32;75.13
79242;BME280;68670;48.720;9.118;2023-04-25T02:15:26;96192.81;;;6.37;74.49
79242;BME280;68670;48.720;9.118;2023-04-25T02:17:52;96177.31;;;6.38;74.05
79242;BME280;68670;48.720;9.118;2023-04-25T02:20:26;96179.44;;;6.36;74.67
79242;BME280;68670;48.720;9.118;2023-04-25T02:22:55;96177.19;;;6.33;74.28
79242;BME280;68670;48.720;9.118;2023-04-25T02:25:23;96178.50;;;6.42;74.48
79242;BME280;68670;48.720;9.118;2023-04-25T02:27:48;96171.06;;;6.37;74.34
79242;BME280;68670;48.720;9.118;2023-04-25T02:30:16;96167.59;;;6.30;74.23
79242;BME280;68670;48.720;9.118;2023-04-25T02:32:41;96169.38;;;6.36;74.54
79242;BME280;68670;48.720;9.118;2023-04-25T02:35:07;96169.03;;;6.33;74.42
79242;BME280;68670;48.720;9.118;2023-04-25T02:37:37;96163.00;;;6.31;74.63
79242;BME280;68670;48.720;9.118;2023-04-25T02:40:03;96166.44;;;6.38;74.23
79242;BME280;68670;48.720;9.118;2023-04-25T02:42:31;96162.19;;;6.42;74.08
79242;BME280;68670;48.720;9.118;2023-04-25T02:44:57;96164.31;;;6.40;73.52
79242;BME280;68670;48.720;9.118;2023-04-25T02:47:27;96168.09;;;6.39;73.77
79242;BME280;68670;48.720;9.118;2023-04-25T02:49:52;96163.84;;;6.43;73.37
79242;BME280;68670;48.720;9.118;2023-04-25T02:52:19;96151.31;;;6.42;72.51
79242;BME280;68670;48.720;9.118;2023-04-25T02:54:46;96160.06;;;6.44;73.17
79242;BME280;68670;48.720;9.118;2023-04-25T02:57:14;96155.09;;;6.41;72.55
79242;BME280;68670;48.720;9.118;2023-04-25T02:59:39;96159.59;;;6.47;72.23
79242;BME280;68670;48.720;9.118;2023-04-25T03:02:07;96160.16;;;6.37;72.43
79242;BME280;68670;48.720;9.118;2023-04-25T03:04:32;96160.53;;;6.41;72.14
79242;BME280;68670;48.720;9.118;2023-04-25T03:06:58;96162.28;;;6.35;72.43
79242;BME280;68670;48.720;9.118;2023-04-25T03:09:24;96151.53;;;6.29;73.15
79242;BME280;68670;48.720;9.118;2023-04-25T03:11:49;96158.03;;;6.28;73.27
79242;BME280;68670;48.720;9.118;2023-04-25T03:14:16;96158.34;;;6.20;73.65
79242;BME280;68670;48.720;9.118;2023-04-25T03:16:42;96155.41;;;6.21;73.57
79242;BME280;68670;48.720;9.118;2023-04-25T03:19:09;96152.44;;;6.23;73.85
79242;BME280;68670;48.720;9.118;2023-04-25T03:21:35;96148.56;;;6.30;73.75
79242;BME280;68670;48.720;9.118;2023-04-25T03:24:01;96142.66;;;6.33;73.70
79242;BME280;68670;48.720;9.118;2023-04-25T03:26:27;96145.84;;;6.30;74.39
79242;BME280;68670;48.720;9.118;2023-04-25T03:28:52;96146.22;;;6.34;73.92
79242;BME280;68670;48.720;9.118;2023-04-25T03:31:20;96146.09;;;6.29;74.05
79242;BME280;68670;48.720;9.118;2023-04-25T03:33:45;96151.41;;;6.35;73.97
79242;BME280;68670;48.720;9.118;2023-04-25T03:36:13;96138.06;;;6.34;73.97
79242;BME280;68670;48.720;9.118;2023-04-25T03:38:38;96138.06;;;6.34;74.21
79242;BME280;68670;48.720;9.118;2023-04-25T03:41:03;96139.81;;;6.28;74.71
79242;BME280;68670;48.720;9.118;2023-04-25T03:43:31;96145.84;;;6.30;74.83
79242;BME280;68670;48.720;9.118;2023-04-25T03:45:56;96152.13;;;6.31;74.41
79242;BME280;68670;48.720;9.118;2023-04-25T03:48:25;96147.59;;;6.25;74.65
79242;BME280;68670;48.720;9.118;2023-04-25T03:50:54;96150.78;;;6.22;75.22
79242;BME280;68670;48.720;9.118;2023-04-25T03:53:21;96155.91;;;6.30;74.55
79242;BME280;68670;48.720;9.118;2023-04-25T03:55:47;96158.63;;;6.30;74.42
79242;BME280;68670;48.720;9.118;2023-04-25T03:58:12;96153.19;;;6.30;75.44
79242;BME280;68670;48.720;9.118;2023-04-25T04:00:38;96147.00;;;6.23;75.97
79242;BME280;68670;48.720;9.118;2023-04-25T04:03:08;96144.88;;;6.25;75.31
79242;BME280;68670;48.720;9.118;2023-04-25T04:05:36;96136.88;;;6.30;74.94
79242;BME280;68670;48.720;9.118;2023-04-25T04:08:02;96146.91;;;6.29;74.90
79242;BME280;68670;48.720;9.118;2023-04-25T04:10:29;96147.59;;;6.25;75.31
79242;BME280;68670;48.720;9.118;2023-04-25T04:12:57;96153.75;;;6.20;75.45
79242;BME280;68670;48.720;9.118;2023-04-25T04:15:22;96138.72;;;6.18;75.57
79242;BME280;68670;48.720;9.118;2023-04-25T04:17:48;96141.81;;;6.10;75.80
79242;BME280;68670;48.720;9.118;2023-04-25T04:20:16;96147.09;;;6.04;75.92
79242;BME280;68670;48.720;9.118;2023-04-25T04:22:43;96156.81;;;6.12;75.87
79242;BME280;68670;48.720;9.118;2023-04-25T04:25:09;96164.03;;;6.06;75.89
79242;BME280;68670;48.720;9.118;2023-04-25T04:27:37;96161.91;;;6.09;75.66
79242;BME280;68670;48.720;9.118;2023-04-25T04:30:05;96161.16;;;6.01;75.90
79242;BME280;68670;48.720;9.118;2023-04-25T04:32:31;96167.56;;;6.07;75.59
79242;BME280;68670;48.720;9.118;2023-04-25T04:34:59;96158.13;;;6.10;75.85
79242;BME280;68670;48.720;9.118;2023-04-25T04:37:30;96161.91;;;6.09;75.37
79242;BME280;68670;48.720;9.118;2023-04-25T04:39:56;96157.38;;;6.02;75.77
79242;BME280;68670;48.720;9.118;2023-04-25T04:42:23;96162.00;;;6.02;76.65
79242;BME280;68670;48.720;9.118;2023-04-25T04:44:51;96171.00;;;6.14;75.52
79242;BME280;68670;48.720;9.118;2023-04-25T04:47:19;96173.59;;;6.09;75.53
79242;BME280;68670;48.720;9.118;2023-04-25T04:49:48;96178.22;;;6.09;75.98
79242;BME280;68670;48.720;9.118;2023-04-25T04:52:13;96172.31;;;6.12;76.71
79242;BME280;68670;48.720;9.118;2023-04-25T04:54:39;96184.38;;;6.16;75.78
79242;BME280;68670;48.720;9.118;2023-04-25T04:57:04;96177.38;;;6.20;75.60
79242;BME280;68670;48.720;9.118;2023-04-25T04:59:34;96179.63;;;6.23;75.91
79242;BME280;68670;48.720;9.118;2023-04-25T05:02:00;96177.97;;;6.22;75.91
79242;BME280;68670;48.720;9.118;2023-04-25T05:04:32;96177.88;;;6.28;75.27
79242;BME280;68670;48.720;9.118;2023-04-25T05:06:58;96177.06;;;6.28;76.26
79242;BME280;68670;48.720;9.118;2023-04-25T05:09:23;96178.72;;;6.29;76.51
79242;BME280;68670;48.720;9.118;2023-04-25T05:11:51;96185.81;;;6.30;77.14
79242;BME280;68670;48.720;9.118;2023-04-25T05:14:18;96185.59;;;6.43;75.87
79242;BME280;68670;48.720;9.118;2023-04-25T05:16:46;96188.56;;;6.42;75.83
79242;BME280;68670;48.720;9.118;2023-04-25T05:19:11;96186.44;;;6.44;76.03
79242;BME280;68670;48.720;9.118;2023-04-25T05:21:37;96192.25;;;6.47;76.17
79242;BME280;68670;48.720;9.118;2023-04-25T05:24:02;96189.38;;;6.42;76.19
79242;BME280;68670;48.720;9.118;2023-04-25T05:26:27;96189.25;;;6.37;79.62
79242;BME280;68670;48.720;9.118;2023-04-25T05:28:57;96187.25;;;6.32;78.63
79242;BME280;68670;48.720;9.118;2023-04-25T05:31:29;96192.44;;;6.34;78.22
79242;BME280;68670;48.720;9.118;2023-04-25T05:33:54;96191.50;;;6.40;78.13
79242;BME280;68670;48.720;9.118;2023-04-25T05:36:20;96192.34;;;6.40;78.41
79242;BME280;68670;48.720;9.118;2023-04-25T05:38:45;96190.31;;;6.36;78.05
79242;BME280;68670;48.720;9.118;2023-04-25T05:41:10;96189.84;;;6.39;78.63
79242;BME280;68670;48.720;9.118;2023-04-25T05:43:38;96196.03;;;6.46;78.28
79242;BME280;68670;48.720;9.118;2023-04-25T05:46:03;96196.03;;;6.46;79.62
79242;BME280;68670;48.720;9.118;2023-04-25T05:48:34;96193.41;;;6.51;78.58
79242;BME280;68670;48.720;9.118;2023-04-25T05:51:01;96189.16;;;6.55;78.30
79242;BME280;68670;48.720;9.118;2023-04-25T05:53:27;96200.16;;;6.60;78.02
79242;BME280;68670;48.720;9.118;2023-04-25T05:55:52;96195.78;;;6.59;77.82
79242;BME280;68670;48.720;9.118;2023-04-25T05:58:22;96203.13;;;6.59;77.49
79242;BME280;68670;48.720;9.118;2023-04-25T06:00:47;96197.44;;;6.60;77.47
79242;BME280;68670;48.720;9.118;2023-04-25T06:03:15;96197.78;;;6.52;78.20
79242;BME280;68670;48.720;9.118;2023-04-25T06:05:41;96204.53;;;6.61;77.60
79242;BME280;68670;48.720;9.118;2023-04-25T06:08:09;96200.41;;;6.59;77.77
79242;BME280;68670;48.720;9.118;2023-04-25T06:10:38;96203.47;;;6.62;76.31
79242;BME280;68670;48.720;9.118;2023-04-25T06:13:05;96209.63;;;6.58;78.11
79242;BME280;68670;48.720;9.118;2023-04-25T06:15:31;96205.00;;;6.58;76.20
79242;BME280;68670;48.720;9.118;2023-04-25T06:18:02;96199.34;;;6.60;77.21
79242;BME280;68670;48.720;9.118;2023-04-25T06:20:30;96194.25;;;6.63;76.96
79242;BME280;68670;48.720;9.118;2023-04-25T06:22:55;96198.28;;;6.61;77.65
79242;BME280;68670;48.720;9.118;2023-04-25T06:25:22;96190.69;;;6.63;76.75
79242;BME280;68670;48.720;9.118;2023-04-25T06:27:50;96196.84;;;6.58;76.81
79242;BME280;68670;48.720;9.118;2023-04-25T06:30:15;96187.03;;;6.57;76.94
79242;BME280;68670;48.720;9.118;2023-04-25T06:32:43;96188.69;;;6.58;77.68
79242;BME280;68670;48.720;9.118;2023-04-25T06:35:11;96187.03;;;6.57;77.70
79242;BME280;68670;48.720;9.118;2023-04-25T06:37:38;96182.78;;;6.61;78.26
79242;BME280;68670;48.720;9.118;2023-04-25T06:40:04;96183.59;;;6.62;77.61
79242;BME280;68670;48.720;9.118;2023-04-25T06:42:32;96185.25;;;6.63;78.37
79242;BME280;68670;48.720;9.118;2023-04-25T06:45:04;96184.44;;;6.62;78.54
79242;BME280;68670;48.720;9.118;2023-04-25T06:47:32;96185.50;;;6.61;78.33
79242;BME280;68670;48.720;9.118;2023-04-25T06:49:57;96194.50;;;6.62;76.38
79242;BME280;68670;48.720;9.118;2023-04-25T06:52:25;96189.41;;;6.65;75.54
79242;BME280;68670;48.720;9.118;2023-04-25T06:54:52;96187.28;;;6.67;75.67
79242;BME280;68670;48.720;9.118;2023-04-25T06:57:20;96187.03;;;6.57;75.07
79242;BME280;68670;48.720;9.118;2023-04-25T06:59:45;96186.56;;;6.60;76.20
79242;BME280;68670;48.720;9.118;2023-04-25T07:02:13;96192.13;;;6.65;74.65
79242;BME280;68670;48.720;9.118;2023-04-25T07:04:41;96199.66;;;6.52;76.28
79242;BME280;68670;48.720;9.118;2023-04-25T07:07:06;96200.03;;;6.55;76.48
79242;BME280;68670;48.720;9.118;2023-04-25T07:09:31;96196.72;;;6.53;76.34
79242;BME280;68670;48.720;9.118;2023-04-25T07:11:59;96201.69;;;6.56;77.28
79242;BME280;68670;48.720;9.118;2023-04-25T07:14:24;96202.16;;;6.53;76.99
79242;BME280;68670;48.720;9.118;2023-04-25T07:16:52;96209.63;;;6.46;78.17
79242;BME280;68670;48.720;9.118;2023-04-25T07:19:18;96208.78;;;6.46;77.91
79242;BME280;68670;48.720;9.118;2023-04-25T07:21:45;96208.56;;;6.47;78.16
79242;BME280;68670;48.720;9.118;2023-04-25T07:24:10;96208.31;;;6.49;77.21
79242;BME280;68670;48.720;9.118;2023-04-25T07:26:38;96211.03;;;6.49;78.34
79242;BME280;68670;48.720;9.118;2023-04-25T07:29:04;96213.50;;;6.50;79.34
79242;BME280;68670;48.720;9.118;2023-04-25T07:31:29;96213.50;;;6.50;78.08
79242;BME280;68670;48.720;9.118;2023-04-25T07:33:54;96211.38;;;6.52;78.62
79242;BME280;68670;48.720;9.118;2023-04-25T07:36:19;96194.81;;;6.42;78.25
79242;BME280;68670;48.720;9.118;2023-04-25T07:38:48;96213.03;;;6.53;79.91
79242;BME280;68670;48.720;9.118;2023-04-25T07:41:20;96217.19;;;6.56;80.40
79242;BME280;68670;48.720;9.118;2023-04-25T07:43:48;96222.63;;;6.56;79.08
79242;BME280;68670;48.720;9.118;2023-04-25T07:46:13;96221.31;;;6.58;79.76
79242;BME280;68670;48.720;9.118;2023-04-25T07:48:41;96224.38;;;6.50;79.85
79242;BME280;68670;48.720;9.118;2023-04-25T07:51:06;96227.00;;;6.45;79.29
79242;BME280;68670;48.720;9.118;2023-04-25T07:53:32;96224.00;;;6.35;78.93
79242;BME280;68670;48.720;9.118;2023-04-25T07:56:02;96231.25;;;6.41;80.35
79242;BME280;68670;48.720;9.118;2023-04-25T07:58:27;96237.16;;;6.38;80.67
79242;BME280;68670;48.720;9.118;2023-04-25T08:00:55;96243.19;;;6.40;80.72
79242;BME280;68670;48.720;9.118;2023-04-25T08:03:20;96248.75;;;6.45;81.50
79242;BME280;68670;48.720;9.118;2023-04-25T08:05:46;96239.63;;;6.39;80.62
79242;BME280;68670;48.720;9.118;2023-04-25T08:08:11;96242.38;;;6.51;80.41
79242;BME280;68670;48.720;9.118;2023-04-25T08:10:39;96250.28;;;6.53;80.91
79242;BME280;68670;48.720;9.118;2023-04-25T08:13:09;96251.72;;;6.55;81.67
79242;BME280;68670;48.720;9.118;2023-04-25T08:15:36;96250.66;;;6.56;80.91
79242;BME280;68670;48.720;9.118;2023-04-25T08:18:02;96257.75;;;6.57;81.38
79242;BME280;68670;48.720;9.118;2023-04-25T08:20:30;96261.44;;;6.63;83.69
79242;BME280;68670;48.720;9.118;2023-04-25T08:22:55;96268.31;;;6.65;82.82
79242;BME280;68670;48.720;9.118;2023-04-25T08:25:23;96275.53;;;6.71;80.39
79242;BME280;68670;48.720;9.118;2023-04-25T08:27:48;96274.72;;;6.71;78.90
79242;BME280;68670;48.720;9.118;2023-04-25T08:30:18;96270.22;;;6.65;80.22
79242;BME280;68670;48.720;9.118;2023-04-25T08:32:48;96278.22;;;6.60;80.30
79242;BME280;68670;48.720;9.118;2023-04-25T08:35:13;96284.31;;;6.73;79.99
79242;BME280;68670;48.720;9.118;2023-04-25T08:37:38;96290.69;;;6.67;81.77
79242;BME280;68670;48.720;9.118;2023-04-25T08:40:04;96288.09;;;6.72;80.74
79242;BME280;68670;48.720;9.118;2023-04-25T08:42:33;96293.53;;;6.72;81.31
79242;BME280;68670;48.720;9.118;2023-04-25T08:45:01;96296.72;;;6.69;80.56
79242;BME280;68670;48.720;9.118;2023-04-25T08:47:30;96302.03;;;6.64;81.30
79242;BME280;68670;48.720;9.118;2023-04-25T08:49:59;96302.50;;;6.61;82.01
79242;BME280;68670;48.720;9.118;2023-04-25T08:52:28;96313.84;;;6.58;82.18
79242;BME280;68670;48.720;9.118;2023-04-25T08:55:00;96308.41;;;6.58;82.96
79242;BME280;68670;48.720;9.118;2023-04-25T08:57:31;96315.97;;;6.56;81.52
79242;BME280;68670;48.720;9.118;2023-04-25T09:00:02;96312.63;;;6.54;79.05
79242;BME280;68670;48.720;9.118;2023-04-25T09:02:29;96318.06;;;6.54;79.92
79242;BME280;68670;48.720;9.118;2023-04-25T09:04:57;96318.44;;;6.46;80.72
79242;BME280;68670;48.720;9.118;2023-04-25T09:07:25;96325.38;;;6.42;81.08
79242;BME280;68670;48.720;9.118;2023-04-25T09:09:51;96333.91;;;6.46;81.02
79242;BME280;68670;48.720;9.118;2023-04-25T09:12:19;96335.34;;;6.48;80.60
79242;BME280;68670;48.720;9.118;2023-04-25T09:17:32;96337.69;;;6.45;80.78
79242;BME280;68670;48.720;9.118;2023-04-25T09:20:07;96339.22;;;6.40;80.60
79242;BME280;68670;48.720;9.118;2023-04-25T09:22:33;96348.53;;;6.33;80.20
79242;BME280;68670;48.720;9.118;2023-04-25T09:24:59;96351.38;;;6.38;82.16
79242;BME280;68670;48.720;9.118;2023-04-25T09:27:27;96362.03;;;6.39;81.94
79242;BME280;68670;48.720;9.118;2023-04-25T09:29:58;96364.78;;;6.51;80.67
79242;BME280;68670;48.720;9.118;2023-04-25T09:32:27;96362.13;;;6.33;81.33
79242;BME280;68670;48.720;9.118;2023-04-25T09:34:53;96368.06;;;6.42;81.30
79242;BME280;68670;48.720;9.118;2023-04-25T09:37:26;96367.50;;;6.21;82.47
79242;BME280;68670;48.720;9.118;2023-04-25T09:39:57;96371.50;;;6.19;83.13
79242;BME280;68670;48.720;9.118;2023-04-25T09:42:31;96374.81;;;6.21;83.69
79242;BME280;68670;48.720;9.118;2023-04-25T09:45:00;96379.13;;;6.28;84.01
79242;BME280;68670;48.720;9.118;2023-04-25T09:47:27;96385.09;;;6.19;81.36
79242;BME280;68670;48.720;9.118;2023-04-25T09:49:58;96388.28;;;5.97;80.84
79242;BME280;68670;48.720;9.118;2023-04-25T09:52:24;96390.88;;;5.86;82.99
79242;BME280;68670;48.720;9.118;2023-04-25T09:54:50;96391.28;;;5.89;83.41
79242;BME280;68670;48.720;9.118;2023-04-25T09:57:24;96388.63;;;5.83;84.60
79242;BME280;68670;48.720;9.118;2023-04-25T10:02:15;96386.75;;;5.83;83.30
79242;BME280;68670;48.720;9.118;2023-04-25T10:04:41;96395.97;;;5.82;82.59
79242;BME280;68670;48.720;9.118;2023-04-25T10:07:11;96397.25;;;5.80;83.13
79242;BME280;68670;48.720;9.118;2023-04-25T10:09:38;96403.06;;;5.83;83.38
79242;BME280;68670;48.720;9.118;2023-04-25T10:12:06;96413.63;;;5.91;82.52
79242;BME280;68670;48.720;9.118;2023-04-25T10:14:32;96405.88;;;5.95;83.91
79242;BME280;68670;48.720;9.118;2023-04-25T10:17:00;96408.53;;;6.01;82.10
79242;BME280;68670;48.720;9.118;2023-04-25T10:19:29;96411.84;;;6.03;80.56
79242;BME280;68670;48.720;9.118;2023-04-25T10:22:39;96428.91;;;6.11;82.18
79242;BME280;68670;48.720;9.118;2023-04-25T10:25:06;96427.53;;;6.20;78.48
79242;BME280;68670;48.720;9.118;2023-04-25T10:27:36;96423.09;;;6.07;78.55
79242;BME280;68670;48.720;9.118;2023-04-25T10:30:08;96430.72;;;5.98;78.63
79242;BME280;68670;48.720;9.118;2023-04-25T10:32:36;96427.53;;;6.01;79.26
79242;BME280;68670;48.720;9.118;2023-04-25T10:35:12;96431.78;;;5.97;78.83
79242;BME280;68670;48.720;9.118;2023-04-25T10:38:11;96430.56;;;5.93;79.60
79242;BME280;68670;48.720;9.118;2023-04-25T10:40:39;96436.00;;;5.93;79.92
79242;BME280;68670;48.720;9.118;2023-04-25T10:45:57;96439.84;;;6.04;79.57
79242;BME280;68670;48.720;9.118;2023-04-25T10:48:30;96443.09;;;5.94;80.07
79242;BME280;68670;48.720;9.118;2023-04-25T10:51:08;96435.16;;;5.93;80.95
79242;BME280;68670;48.720;9.118;2023-04-25T10:53:37;96444.75;;;5.95;81.94
79242;BME280;68670;48.720;9.118;2023-04-25T10:56:20;96448.41;;;6.07;81.32
79242;BME280;68670;48.720;9.118;2023-04-25T10:58:47;96446.66;;;6.13;80.49
79242;BME280;68670;48.720;9.118;2023-04-25T11:01:21;96458.75;;;6.17;80.49
79242;BME280;68670;48.720;9.118;2023-04-25T11:03:57;96460.50;;;6.12;79.89
79242;BME280;68670;48.720;9.118;2023-04-25T11:06:29;96458.22;;;6.09;81.24
79242;BME280;68670;48.720;9.118;2023-04-25T11:08:57;96461.38;;;6.05;82.08
79242;BME280;68670;48.720;9.118;2023-04-25T11:11:28;96471.81;;;6.09;81.97
79242;BME280;68670;48.720;9.118;2023-04-25T11:13:58;96480.56;;;6.11;82.82
79242;BME280;68670;48.720;9.118;2023-04-25T11:16:27;96480.63;;;6.04;82.25
79242;BME280;68670;48.720;9.118;2023-04-25T11:18:58;96486.56;;;5.94;80.41
79242;BME280;68670;48.720;9.118;2023-04-25T11:21:25;96487.44;;;5.88;80.22
79242;BME280;68670;48.720;9.118;2023-04-25T11:23:53;96488.25;;;5.95;82.98
79242;BME280;68670;48.720;9.118;2023-04-25T11:26:21;96504.19;;;5.85;81.48
79242;BME280;68670;48.720;9.118;2023-04-25T11:28:49;96498.50;;;5.93;80.87
79242;BME280;68670;48.720;9.118;2023-04-25T11:31:14;96492.34;;;6.04;81.21
79242;BME280;68670;48.720;9.118;2023-04-25T11:33:40;96494.44;;;6.02;78.28
79242;BME280;68670;48.720;9.118;2023-04-25T11:36:06;96492.56;;;6.03;80.14
79242;BME280;68670;48.720;9.118;2023-04-25T11:38:31;96494.31;;;6.16;79.57
79242;BME280;68670;48.720;9.118;2023-04-25T11:40:57;96487.84;;;6.17;79.55
79242;BME280;68670;48.720;9.118;2023-04-25T11:43:25;96488.88;;;6.34;79.49
79242;BME280;68670;48.720;9.118;2023-04-25T11:45:53;96496.91;;;6.47;80.39
79242;BME280;68670;48.720;9.118;2023-04-25T11:48:20;96490.22;;;6.61;77.26
79242;BME280;68670;48.720;9.118;2023-04-25T11:50:48;96489.16;;;6.62;76.40
79242;BME280;68670;48.720;9.118;2023-04-25T11:53:18;96495.53;;;6.74;76.15
79242;BME280;68670;48.720;9.118;2023-04-25T11:55:43;96501.84;;;6.87;77.71
79242;BME280;68670;48.720;9.118;2023-04-25T11:58:11;96504.25;;;6.95;78.58
79242;BME280;68670;48.720;9.118;2023-04-25T12:00:42;96508.03;;;6.94;77.20
79242;BME280;68670;48.720;9.118;2023-04-25T12:03:09;96505.63;;;6.86;76.08
79242;BME280;68670;48.720;9.118;2023-04-25T12:05:34;96518.63;;;6.84;76.65
79242;BME280;68670;48.720;9.118;2023-04-25T12:08:12;96518.47;;;6.97;78.48
79242;BME280;68670;48.720;9.118;2023-04-25T12:10:41;96521.41;;;6.95;77.09
79242;BME280;68670;48.720;9.118;2023-04-25T12:15:46;96519.06;;;6.99;77.54
79242;BME280;68670;48.720;9.118;2023-04-25T12:18:19;96523.06;;;6.96;78.25
79242;BME280;68670;48.720;9.118;2023-04-25T12:20:49;96528.38;;;6.91;77.45
79242;BME280;68670;48.720;9.118;2023-04-25T12:23:14;96525.84;;;6.78;75.74
79242;BME280;68670;48.720;9.118;2023-04-25T12:25:44;96534.50;;;6.87;77.12
79242;BME280;68670;48.720;9.118;2023-04-25T12:28:17;96532.59;;;7.05;76.65
79242;BME280;68670;48.720;9.118;2023-04-25T12:33:20;96535.34;;;7.17;75.25
79242;BME280;68670;48.720;9.118;2023-04-25T12:35:45;96532.31;;;7.25;76.86
79242;BME280;68670;48.720;9.118;2023-04-25T12:38:23;96534.91;;;7.20;75.48
79242;BME280;68670;48.720;9.118;2023-04-25T12:40:49;96534.44;;;7.23;75.15
79242;BME280;68670;48.720;9.118;2023-04-25T12:43:14;96542.00;;;7.21;74.94
79242;BME280;68670;48.720;9.118;2023-04-25T12:45:40;96535.84;;;7.14;73.87
79242;BME280;68670;48.720;9.118;2023-04-25T12:48:08;96543.88;;;7.09;72.21
79242;BME280;68670;48.720;9.118;2023-04-25T12:50:33;96540.34;;;7.20;71.57
79242;BME280;68670;48.720;9.118;2023-04-25T12:52:58;96533.16;;;7.26;76.66
79242;BME280;68670;48.720;9.118;2023-04-25T12:55:23;96535.09;;;7.37;73.61
79242;BME280;68670;48.720;9.118;2023-04-25T12:57:49;96538.31;;;7.46;73.72
79242;BME280;68670;48.720;9.118;2023-04-25T13:00:14;96541.16;;;7.51;72.63
79242;BME280;68670;48.720;9.118;2023-04-25T13:02:45;96534.31;;;7.60;73.69
79242;BME280;68670;48.720;9.118;2023-04-25T13:05:12;96543.00;;;7.68;71.78
79242;BME280;68670;48.720;9.118;2023-04-25T13:07:40;96533.28;;;7.72;72.13
79242;BME280;68670;48.720;9.118;2023-04-25T13:10:08;96542.66;;;7.88;72.06
79242;BME280;68670;48.720;9.118;2023-04-25T13:12:33;96538.41;;;7.92;71.18
79242;BME280;68670;48.720;9.118;2023-04-25T13:14:58;96538.88;;;7.89;70.66
79242;BME280;68670;48.720;9.118;2023-04-25T13:17:28;96542.94;;;7.98;71.44
79242;BME280;68670;48.720;9.118;2023-04-25T13:19:54;96546.16;;;8.07;73.06
79242;BME280;68670;48.720;9.118;2023-04-25T13:22:19;96540.81;;;8.24;73.96
79242;BME280;68670;48.720;9.118;2023-04-25T13:24:45;96539.66;;;8.43;70.08